Sparr, Florida
Current Conditions -  °F | °C
As of 5:35 AM on Sunday 21 Dec 2014 (Local Time) from KOCF Reporting Station
Overcast Overcast  
Wind Chill: 59°   Ceiling: 200
Heat Index: 59°   Visibility: 2mi
Dew Point: 55°   Wind: 5mph
Humidity: 88%   Direction: 60°ENE
Pressure: 30.06"   Gusts: NA
Location:  29.34°N, 82.11°W
Report Text: KOCF 211035Z AUTO 06004KT 2SM OVC002 15/13 A3006 RMK AO1
Loading
Personal Weather Stations






























Interactive Weather Map New forecast layout! Learn more

10-Day Weather Forecast

Advertisements
Track Severe Weather on mobile